Hovedside
METAR-TAF:

METAR-TAF

Lufthavner :

Örebro, Sverige

breddegrad: 59-14N, lengdegrad: 015-03E, høyde over havet: 57 m

Gjeldene værobservasjon

Denne rapporten ble laget for 29 minutter siden, klokken 13:20 UTC
Vind 11 kt fra Nord-nordøst
Temperatur -6°C
Luftfuktighet 73%
Trykk 1041 hPa
Sikt 10 km eller mer
Spredte skyer i en høyde av 2100 ft

METAR: ESOE 251320Z 02011KT 9999 SCT021 M06/M10 Q1041

Tid: 14:49 (13:49 UTC)

Varsel

Denne rapporten ble laget for 2 timer og 19 minutter siden, klokken 11:30 UTC
Varsel gyldig fra 25. klokken 12 UTC til 25. klokken 21 UTC
Vind 12 kt fra Nord-nordøst
Sikt 10 km eller mer
Spredte skyer i en høyde av 1500 ft
lett snø

TAF: ESOE 251130Z 2512/2521 02012KT 9999 -SN SCT015

Værobservasjoner og værvarsel for over 4000 flyplasser (METAR- og TAF-rapporter).

Tilgjengelige stasjoner er representert av de røde og gule prikkene på kartet.

Hold musepekeren over prikken for å se navnet på stasjonen.

Klikk så for å se værobservasjoner og -varsler.

For å forandre kartet kan du klikke på den grønne knappen med svart kryss for å zoome inn, på den grønne knappen med strek for å zoome ut, eller på de grønne pilene for å se tilstøtende kart.


METAR-TAF: